Time;durP1;ratioP1;P1;durP2;ratioP2;P2;SDS_P1;SDS_P2;PMS_P1;PMS_P2;Temp;Humidity;BMP_temperature;BMP_pressure;BME280_temperature;BME280_humidity;BME280_pressure;Samples;Min_cycle;Max_cycle;Signal;HPM_P1;HPM_P2
2022/12/05 00:01:51;;;;;;;79.03;29.50;;;;;;;1.81;100.00;101073.81;3648950;80;34818;-84
2022/12/05 00:06:52;;;;;;;77.25;31.68;;;;;;;1.82;100.00;101072.73;3648763;79;98406;-85
2022/12/05 00:11:53;;;;;;;69.53;30.17;;;;;;;1.80;100.00;101075.49;3657030;80;26510;-86
2022/12/05 00:16:54;;;;;;;70.10;29.37;;;;;;;1.79;100.00;101068.44;3650351;80;98778;-85
2022/12/05 00:21:56;;;;;;;77.42;32.35;;;;;;;1.76;100.00;101058.98;3664986;80;32891;-85
2022/12/05 00:26:57;;;;;;;79.43;37.27;;;;;;;1.73;100.00;101060.97;3649070;80;98548;-87
2022/12/05 00:31:58;;;;;;;76.10;35.20;;;;;;;1.75;100.00;101064.73;3673481;80;33550;-85
2022/12/05 00:36:58;;;;;;;67.33;26.37;;;;;;;1.74;100.00;101074.78;3665548;80;98752;-86
2022/12/05 00:41:59;;;;;;;62.80;29.07;;;;;;;1.76;100.00;101064.98;3668953;80;32963;-85
2022/12/05 00:47:00;;;;;;;65.73;27.93;;;;;;;1.77;100.00;101058.45;3627517;80;98732;-84
2022/12/05 00:52:01;;;;;;;59.73;28.03;;;;;;;1.78;100.00;101051.37;3630560;80;32487;-86
2022/12/05 00:57:01;;;;;;;58.83;25.70;;;;;;;1.77;100.00;101047.05;3605205;81;98660;-86
2022/12/05 01:02:03;;;;;;;64.70;27.47;;;;;;;1.75;100.00;101052.53;3604565;81;27466;-85
2022/12/05 01:07:04;;;;;;;113.53;50.63;;;;;;;1.71;100.00;101052.30;3597276;80;98543;-84
2022/12/05 01:12:05;;;;;;;82.10;32.73;;;;;;;1.73;100.00;101070.47;3597278;80;26234;-84
2022/12/05 01:17:06;;;;;;;69.47;29.57;;;;;;;1.76;100.00;101075.84;3597427;80;98428;-84
2022/12/05 01:22:07;;;;;;;65.93;28.57;;;;;;;1.76;100.00;101068.48;3608350;80;26499;-85
2022/12/05 01:27:07;;;;;;;60.33;27.13;;;;;;;1.75;100.00;101071.52;3656509;80;99004;-85
2022/12/05 01:32:08;;;;;;;60.73;27.57;;;;;;;1.75;100.00;101056.59;3677294;80;25844;-84
2022/12/05 01:37:09;;;;;;;72.55;28.55;;;;;;;1.73;100.00;101065.58;3674837;80;98546;-85
2022/12/05 01:42:11;;;;;;;62.03;27.70;;;;;;;1.72;100.00;101072.12;3671268;80;26416;-84
2022/12/05 01:47:16;;;;;;;78.40;29.40;;;;;;;1.72;100.00;101060.72;3671181;79;98673;-84
2022/12/05 01:52:22;;;;;;;73.35;28.87;;;;;;;1.77;100.00;101068.76;3678279;80;33092;-85
2022/12/05 01:57:24;;;;;;;69.33;27.20;;;;;;;1.77;100.00;101055.73;3660003;80;99284;-85
2022/12/05 02:02:27;;;;;;;64.00;28.77;;;;;;;1.77;100.00;101042.98;3660219;80;32487;-84
2022/12/05 02:07:29;;;;;;;68.87;28.23;;;;;;;1.74;100.00;101054.97;3652788;80;98777;-84
2022/12/05 02:12:30;;;;;;;64.37;26.63;;;;;;;1.74;100.00;101057.68;3645219;80;29647;-84
2022/12/05 02:17:53;;;;;;;75.17;31.83;;;;;;;1.72;100.00;101059.36;3661673;80;98708;-84
2022/12/05 02:23:23;;;;;;;67.83;28.50;;;;;;;1.73;100.00;101058.25;3666105;80;27554;-85
2022/12/05 02:28:38;;;;;;;63.73;27.17;;;;;;;1.68;100.00;101049.40;3669375;80;30999;-85
2022/12/05 02:33:50;;;;;;;62.97;27.67;;;;;;;1.70;100.00;101052.63;3658885;80;98864;-84
2022/12/05 02:39:02;;;;;;;56.27;22.40;;;;;;;1.68;100.00;101054.28;3668982;79;29629;-84
2022/12/05 02:44:13;;;;;;;58.92;25.48;;;;;;;1.69;100.00;101045.03;3655404;80;98711;-85
2022/12/05 02:49:19;;;;;;;67.87;27.43;;;;;;;1.70;100.00;101043.92;3665791;80;27358;-84
2022/12/05 02:54:24;;;;;;;63.00;27.58;;;;;;;1.72;100.00;101047.16;3660648;80;99115;-84
2022/12/05 02:59:25;;;;;;;62.05;27.80;;;;;;;1.72;100.00;101032.77;3669150;80;32580;-85
2022/12/05 03:04:28;;;;;;;58.73;24.97;;;;;;;1.70;100.00;101041.20;3660676;80;98705;-84
2022/12/05 03:09:51;;;;;;;58.13;25.77;;;;;;;1.72;100.00;101037.66;3672368;80;27371;-85
2022/12/05 03:15:15;;;;;;;60.60;24.82;;;;;;;1.72;100.00;101045.80;3658838;80;98675;-85
2022/12/05 03:20:36;;;;;;;53.77;25.17;;;;;;;1.70;100.00;101044.49;3666816;80;28670;-83
2022/12/05 03:25:45;;;;;;;60.43;25.93;;;;;;;1.63;100.00;101044.89;3657463;80;98715;-86
2022/12/05 03:30:48;;;;;;;53.87;22.97;;;;;;;1.60;100.00;101054.19;3668990;80;28292;-85
2022/12/05 03:36:15;;;;;;;61.08;26.82;;;;;;;1.56;100.00;101062.67;3665202;80;99048;-83
2022/12/05 03:41:39;;;;;;;60.17;27.10;;;;;;;1.55;100.00;101059.72;3550143;80;26630;-84
2022/12/05 03:46:47;;;;;;;56.98;24.67;;;;;;;1.54;100.00;101056.77;3639294;80;98576;-84
2022/12/05 03:52:05;;;;;;;56.50;23.47;;;;;;;1.53;100.00;101047.81;3615441;81;28711;-83
2022/12/05 03:57:21;;;;;;;55.47;24.37;;;;;;;1.52;100.00;101047.56;3605099;81;98757;-83
2022/12/05 04:02:31;;;;;;;57.08;24.87;;;;;;;1.53;100.00;101039.67;3609424;81;27525;-83
2022/12/05 04:07:36;;;;;;;63.77;27.13;;;;;;;1.51;100.00;101035.11;3603971;80;98693;-84
2022/12/05 04:12:40;;;;;;;62.07;26.20;;;;;;;1.49;100.00;101033.80;3614168;81;27456;-85
2022/12/05 04:17:53;;;;;;;62.55;26.10;;;;;;;1.49;100.00;101032.45;3609211;80;98434;-85
2022/12/05 04:22:53;;;;;;;65.13;29.13;;;;;;;1.47;100.00;101032.74;3609545;81;27702;-86
2022/12/05 04:28:18;;;;;;;53.90;23.80;;;;;;;1.46;100.00;101020.83;3606918;81;98547;-84
2022/12/05 04:33:44;;;;;;;59.97;23.87;;;;;;;1.44;100.00;101019.80;3601940;81;98681;-84
2022/12/05 04:38:59;;;;;;;56.93;23.33;;;;;;;1.43;100.00;101020.88;3617886;81;27535;-84
2022/12/05 04:44:05;;;;;;;54.07;22.57;;;;;;;1.43;100.00;101003.25;3604487;81;98713;-86
2022/12/05 04:49:10;;;;;;;58.58;26.23;;;;;;;1.41;100.00;101021.75;3618094;80;28167;-85
2022/12/05 04:54:39;;;;;;;60.48;23.87;;;;;;;1.40;100.00;101000.34;3601040;81;98706;-86
2022/12/05 04:59:40;;;;;;;65.70;26.07;;;;;;;1.40;100.00;101000.34;3617138;81;27399;-85
2022/12/05 05:04:46;;;;;;;51.13;24.53;;;;;;;1.42;100.00;101004.94;3602963;80;99010;-84
2022/12/05 05:09:47;;;;;;;54.53;23.50;;;;;;;1.44;100.00;101013.56;3615919;81;27379;-84
2022/12/05 05:14:47;;;;;;;58.90;25.90;;;;;;;1.45;100.00;101014.62;3610185;81;98766;-84
2022/12/05 05:19:48;;;;;;;61.10;26.40;;;;;;;1.47;100.00;101010.23;3615593;81;26585;-84
2022/12/05 05:24:49;;;;;;;56.20;24.63;;;;;;;1.46;100.00;101009.98;3609865;80;99160;-85
2022/12/05 05:29:50;;;;;;;57.17;24.13;;;;;;;1.45;100.00;101009.20;3603511;81;25938;-85
2022/12/05 05:34:50;;;;;;;50.30;24.33;;;;;;;1.45;100.00;101016.52;3611597;81;98823;-84
2022/12/05 05:39:51;;;;;;;56.93;24.77;;;;;;;1.45;100.00;101007.84;3611159;81;25961;-84
2022/12/05 05:44:52;;;;;;;53.37;24.70;;;;;;;1.42;100.00;100994.88;3613113;81;98911;-84
2022/12/05 05:49:53;;;;;;;53.40;22.23;;;;;;;1.43;100.00;101001.11;3610530;80;33219;-84
2022/12/05 05:54:53;;;;;;;52.77;23.23;;;;;;;1.45;100.00;100998.89;3613234;81;98836;-85
2022/12/05 05:59:54;;;;;;;57.57;25.93;;;;;;;1.43;100.00;100999.19;3617108;81;33207;-84
2022/12/05 06:04:55;;;;;;;53.57;24.63;;;;;;;1.40;100.00;100996.28;3565896;81;99071;-83
2022/12/05 06:09:56;;;;;;;58.87;25.17;;;;;;;1.44;100.00;101001.36;3602537;81;33171;-85
2022/12/05 06:14:56;;;;;;;59.37;25.90;;;;;;;1.42;100.00;101005.72;3600895;81;98924;-86
2022/12/05 06:19:57;;;;;;;53.83;23.13;;;;;;;1.42;100.00;101008.44;3606134;81;30427;-85
2022/12/05 06:24:58;;;;;;;56.97;25.20;;;;;;;1.42;100.00;101009.00;3596208;81;99105;-84
2022/12/05 06:29:59;;;;;;;47.93;19.43;;;;;;;1.41;100.00;100995.98;3598413;81;32257;-87
2022/12/05 06:35:06;;;;;;;56.77;22.57;;;;;;;1.43;100.00;100989.70;3592699;81;99100;-85
2022/12/05 06:40:04;;;;;;;70.17;26.97;;;;;;;1.38;100.00;100997.93;3609808;81;30473;-86
2022/12/05 06:45:06;;;;;;;61.25;27.10;;;;;;;1.37;100.00;100999.05;3613741;80;98677;-85
2022/12/05 06:50:08;;;;;;;61.20;26.67;;;;;;;1.38;100.00;100998.50;3628274;80;25866;-85
2022/12/05 06:55:09;;;;;;;57.70;26.50;;;;;;;1.36;100.00;101004.22;3619712;80;98893;-85
2022/12/05 07:05:30;;;;;;;57.93;25.13;;;;;;;1.39;100.00;101012.30;3521336;80;98888;-84
2022/12/05 07:10:31;;;;;;;63.70;26.90;;;;;;;1.37;100.00;101019.38;3630785;80;32181;-85
2022/12/05 07:15:31;;;;;;;60.20;26.52;;;;;;;1.38;100.00;101031.05;3619307;81;99050;-84
2022/12/05 07:20:32;;;;;;;58.13;25.17;;;;;;;1.38;100.00;101029.69;3629931;81;32481;-86
2022/12/05 07:25:33;;;;;;;59.43;25.50;;;;;;;1.40;100.00;101035.61;3623831;81;99051;-86
2022/12/05 07:30:34;;;;;;;67.63;27.40;;;;;;;1.39;100.00;101028.03;3630806;80;29932;-86
2022/12/05 07:35:35;;;;;;;59.30;22.70;;;;;;;1.39;100.00;101029.94;3623403;81;98980;-86
2022/12/05 07:40:36;;;;;;;59.70;25.90;;;;;;;1.36;100.00;101029.16;3641634;81;29766;-85
2022/12/05 07:45:37;;;;;;;65.50;26.00;;;;;;;1.35;100.00;101028.92;3629065;80;98983;-85
2022/12/05 07:50:38;;;;;;;63.50;25.50;;;;;;;1.37;100.00;101024.02;3640376;80;28886;-85
2022/12/05 07:55:39;;;;;;;66.40;27.80;;;;;;;1.38;100.00;101016.91;3623677;80;98723;-86
2022/12/05 08:00:39;;;;;;;63.52;27.35;;;;;;;1.41;100.00;101012.80;3634104;81;34942;-85
2022/12/05 08:05:40;;;;;;;72.03;28.57;;;;;;;1.44;100.00;101010.31;3627019;81;98790;-87
2022/12/05 08:10:41;;;;;;;67.33;29.97;;;;;;;1.44;100.00;101004.07;3636533;80;35429;-86
2022/12/05 08:15:42;;;;;;;71.20;29.40;;;;;;;1.45;100.00;101011.91;3632984;80;98726;-85
2022/12/05 08:20:43;;;;;;;75.67;34.07;;;;;;;1.48;100.00;101032.98;3622503;80;35291;-86
2022/12/05 08:25:43;;;;;;;71.17;32.43;;;;;;;1.52;100.00;101033.18;3624809;81;98952;-86
2022/12/05 08:30:44;;;;;;;56.73;27.10;;;;;;;1.54;100.00;101022.85;3627012;80;34863;-87
2022/12/05 08:35:45;;;;;;;63.33;26.80;;;;;;;1.57;100.00;101042.58;3621949;80;98641;-86
2022/12/05 08:40:46;;;;;;;63.80;27.03;;;;;;;1.61;100.00;101042.23;3596093;81;32452;-85
2022/12/05 08:45:52;;;;;;;61.83;26.68;;;;;;;1.63;100.00;101034.58;3621524;80;98688;-85
2022/12/05 08:50:53;;;;;;;61.48;28.17;;;;;;;1.66;100.00;101036.70;3626513;79;26150;-84
2022/12/05 08:55:54;;;;;;;63.73;28.67;;;;;;;1.66;100.00;101037.52;3629393;81;98791;-85
2022/12/05 09:01:11;;;;;;;64.67;29.07;;;;;;;1.70;100.00;101029.58;3625249;80;33658;-86
2022/12/05 09:06:19;;;;;;;;;;;;;;;1.75;100.00;101033.53;3625269;80;98628;-85
2022/12/05 09:11:25;;;;;;;58.55;26.05;;;;;;;1.78;100.00;101034.27;3622041;81;32018;-86
2022/12/05 09:16:31;;;;;;;67.60;30.15;;;;;;;1.81;100.00;101035.03;3621165;81;98723;-86
2022/12/05 09:21:32;;;;;;;64.50;27.23;;;;;;;1.83;100.00;101033.63;3613529;81;26548;-86
2022/12/05 09:26:33;;;;;;;70.93;28.70;;;;;;;1.86;100.00;101031.64;3618293;81;98558;-85
2022/12/05 09:31:35;;;;;;;65.80;29.40;;;;;;;1.90;100.00;101031.83;3631647;81;32463;-85
2022/12/05 09:36:36;;;;;;;68.37;31.42;;;;;;;1.91;100.00;101032.89;3621788;81;98440;-85
2022/12/05 09:42:19;;;;;;;65.57;29.90;;;;;;;1.94;100.00;101027.41;3626191;80;33806;-86
2022/12/05 09:47:28;;;;;;;72.53;31.15;;;;;;;1.93;100.00;101013.59;3620863;79;98767;-85
2022/12/05 09:52:34;;;;;;;63.45;29.98;;;;;;;1.97;100.00;101026.23;3678058;80;35155;-86
2022/12/05 09:57:41;;;;;;;72.55;29.27;;;;;;;1.97;100.00;101014.02;3663533;80;98474;-86
2022/12/05 10:03:20;;;;;;;68.67;29.95;;;;;;;1.99;100.00;101004.22;3677163;80;25962;-85
2022/12/05 10:08:38;;;;;;;69.00;32.27;;;;;;;1.96;100.00;101003.46;3596417;80;26219;-86
2022/12/05 10:14:05;;;;;;;65.47;28.47;;;;;;;1.94;100.00;101008.41;3669600;78;98750;-86
2022/12/05 10:19:20;;;;;;;81.00;30.60;;;;;;;1.98;100.00;101014.27;3681256;80;34192;-85
2022/12/05 10:24:44;;;;;;;73.67;33.35;;;;;;;2.05;100.00;101007.06;3657837;80;99376;-89
2022/12/05 10:30:10;;;;;;;77.90;34.45;;;;;;;2.06;100.00;101016.27;3681031;80;35053;-86
2022/12/05 10:35:33;;;;;;;69.82;31.87;;;;;;;2.04;100.00;101013.61;3678605;80;98929;-83
2022/12/05 10:40:44;;;;;;;70.10;30.77;;;;;;;2.03;100.00;101006.58;3680234;80;30046;-85
2022/12/05 10:45:47;;;;;;;69.95;32.45;;;;;;;2.06;100.00;100993.73;3669097;80;99115;-86
2022/12/05 10:50:55;;;;;;;70.80;32.50;;;;;;;2.06;100.00;100991.84;3652857;80;29804;-86
2022/12/05 10:55:56;;;;;;;76.05;32.88;;;;;;;2.06;100.00;100982.33;3625935;81;98978;-84
2022/12/05 11:01:09;;;;;;;72.67;32.53;;;;;;;2.09;100.00;100970.06;3631075;81;30682;-85
2022/12/05 11:06:23;;;;;;;67.40;32.95;;;;;;;2.10;100.00;100970.30;3618873;80;99063;-87
2022/12/05 11:11:29;;;;;;;65.73;31.57;;;;;;;2.10;100.00;100970.30;3636302;81;31031;-86
2022/12/05 11:16:37;;;;;;;68.80;32.53;;;;;;;2.15;100.00;100966.11;3637717;80;98759;-85
2022/12/05 11:21:42;;;;;;;72.60;33.48;;;;;;;2.18;100.00;100964.16;3634845;81;34530;-86
2022/12/05 11:26:44;;;;;;;72.80;31.30;;;;;;;2.17;100.00;100941.62;3639368;80;98845;-86
2022/12/05 11:31:52;;;;;;;64.37;28.60;;;;;;;2.18;100.00;100939.14;3625984;81;30565;-87
2022/12/05 11:36:57;;;;;;;67.00;28.42;;;;;;;2.22;100.00;100941.50;3631594;80;98460;-86
2022/12/05 11:42:22;;;;;;;65.30;29.47;;;;;;;2.27;100.00;100955.49;3636028;81;26265;-87
2022/12/05 11:48:03;;;;;;;74.67;32.58;;;;;;;2.30;100.00;100962.46;3626440;81;98622;-86
2022/12/05 11:53:21;;;;;;;62.60;26.97;;;;;;;2.33;100.00;100961.86;3553106;80;32535;-86
2022/12/05 11:59:10;;;;;;;71.77;32.90;;;;;;;2.38;100.00;100956.84;3609230;80;29997;-86
2022/12/05 12:04:57;;;;;;;63.83;28.83;;;;;;;2.37;100.00;100949.27;3609083;80;98972;-87
2022/12/05 12:10:35;;;;;;;75.08;31.48;;;;;;;2.34;100.00;100948.52;3609043;80;26425;-86
2022/12/05 12:16:17;;;;;;;66.62;31.10;;;;;;;2.41;100.00;100944.02;3615297;80;98795;-86
2022/12/05 12:21:57;;;;;;;65.10;29.95;;;;;;;2.38;100.00;100943.27;3613254;80;32989;-86
2022/12/05 12:27:34;;;;;;;72.20;31.83;;;;;;;2.40;100.00;100925.55;3603128;80;98815;-85
2022/12/05 12:32:50;;;;;;;71.42;32.45;;;;;;;2.40;100.00;100918.75;3587368;80;25990;-84
2022/12/05 12:38:21;;;;;;;66.35;31.17;;;;;;;2.42;100.00;100907.59;3617532;80;99203;-85
2022/12/05 12:43:34;;;;;;;70.07;30.13;;;;;;;2.41;100.00;100907.34;3611247;80;99832;-85
2022/12/05 12:48:58;;;;;;;76.23;34.73;;;;;;;2.46;100.00;100908.58;3622932;80;28059;-86
2022/12/05 12:54:07;;;;;;;70.75;30.80;;;;;;;2.45;100.00;100904.23;3624908;80;99418;-87
2022/12/05 12:59:32;;;;;;;68.87;34.60;;;;;;;2.40;100.00;100902.45;3621234;81;32075;-87
2022/12/05 13:04:41;;;;;;;69.83;34.00;;;;;;;2.40;100.00;100903.81;3611458;80;98742;-87
2022/12/05 13:09:55;;;;;;;67.83;33.00;;;;;;;2.44;100.00;100910.78;3631603;80;31011;-87
2022/12/05 13:15:05;;;;;;;80.28;35.43;;;;;;;2.48;100.00;100918.02;3642649;81;99181;-87
2022/12/05 13:20:20;;;;;;;76.82;37.53;;;;;;;2.48;100.00;100907.70;3638611;81;35379;-87
2022/12/05 13:25:26;;;;;;;73.47;34.80;;;;;;;2.44;100.00;100904.80;3622408;80;98908;-87
2022/12/05 13:30:29;;;;;;;74.00;34.80;;;;;;;2.47;100.00;100904.16;3620948;81;43452;-87
2022/12/05 13:46:34;;;;;;;80.83;36.42;;;;;;;2.50;100.00;100909.53;3638300;81;99077;-87
2022/12/05 13:51:39;;;;;;;83.40;36.73;;;;;;;2.50;100.00;100914.42;3668127;80;26453;-86
2022/12/05 13:57:00;;;;;;;73.10;32.73;;;;;;;2.50;100.00;100902.74;3667190;80;98835;-86
2022/12/05 14:02:01;;;;;;;73.28;34.60;;;;;;;2.48;100.00;100903.62;3678055;80;33962;-87
2022/12/05 14:07:02;;;;;;;69.33;32.33;;;;;;;2.49;100.00;100896.52;3647671;80;98432;-87
2022/12/05 14:12:14;;;;;;;80.60;35.10;;;;;;;2.46;100.00;100886.27;3680123;80;32535;-86
2022/12/05 14:17:15;;;;;;;85.62;39.63;;;;;;;2.46;100.00;100884.91;3669690;80;99074;-86
2022/12/05 14:22:55;;;;;;;86.30;38.20;;;;;;;2.45;100.00;100879.23;3681687;80;25856;-87
2022/12/05 14:28:34;;;;;;;83.15;37.50;;;;;;;2.41;100.00;100876.89;3674895;80;98605;-86
2022/12/05 14:33:35;;;;;;;79.80;44.00;;;;;;;2.44;100.00;100883.08;3675413;80;98882;-87
2022/12/05 14:38:36;;;;;;;166.47;103.92;;;;;;;2.47;100.00;100889.80;3655120;80;32972;-87
2022/12/05 14:43:38;;;;;;;85.57;40.50;;;;;;;2.46;100.00;100892.27;3671416;80;99182;-87
2022/12/05 14:48:46;;;;;;;79.92;38.95;;;;;;;2.41;100.00;100890.47;3659112;80;35340;-88
2022/12/05 14:53:48;;;;;;;81.22;37.10;;;;;;;2.40;100.00;100876.66;3670067;80;99437;-87
2022/12/05 14:59:04;;;;;;;74.15;34.53;;;;;;;2.41;100.00;100879.61;3687143;80;35634;-87
2022/12/05 15:04:19;;;;;;;76.30;35.45;;;;;;;2.40;100.00;100878.02;3680091;80;99053;-86
2022/12/05 15:09:47;;;;;;;77.67;36.90;;;;;;;2.43;100.00;100875.23;3683961;80;34666;-86
2022/12/05 15:15:02;;;;;;;74.53;33.10;;;;;;;2.43;100.00;100865.72;3674608;80;98821;-86
2022/12/05 15:20:15;;;;;;;78.37;34.45;;;;;;;2.42;100.00;100864.94;3677503;80;33075;-87
2022/12/05 15:25:31;;;;;;;78.92;36.03;;;;;;;2.43;100.00;100860.29;3681690;80;98992;-87
2022/12/05 15:30:35;;;;;;;90.53;42.47;;;;;;;2.41;100.00;100860.59;3685078;80;25855;-86
2022/12/05 15:35:36;;;;;;;85.97;37.85;;;;;;;2.41;100.00;100861.95;3682497;80;98682;-87
2022/12/05 15:40:37;;;;;;;84.77;39.27;;;;;;;2.41;100.00;100872.82;3686286;80;25748;-86
2022/12/05 15:45:38;;;;;;;81.27;38.73;;;;;;;2.41;100.00;100859.81;3678877;80;99028;-87
2022/12/05 15:50:46;;;;;;;86.80;43.30;;;;;;;2.46;100.00;100861.04;3682895;80;33140;-87
2022/12/05 15:56:05;;;;;;;87.82;38.10;;;;;;;2.48;100.00;100854.72;3677957;79;98923;-87
2022/12/05 16:01:22;;;;;;;81.67;35.23;;;;;;;2.48;100.00;100846.58;3683382;80;34827;-87
2022/12/05 16:06:28;;;;;;;79.13;34.37;;;;;;;2.50;100.00;100850.58;3679539;80;99105;-87
2022/12/05 16:11:29;;;;;;;71.65;34.58;;;;;;;2.54;100.00;100853.47;3685850;80;26002;-87
2022/12/05 16:16:36;;;;;;;73.00;35.23;;;;;;;2.58;100.00;100848.44;3677172;80;99097;-85
2022/12/05 16:21:42;;;;;;;76.10;34.15;;;;;;;2.59;100.00;100847.90;3678176;80;34587;-85
2022/12/05 16:26:52;;;;;;;91.12;40.48;;;;;;;2.59;100.00;100847.35;3671609;80;98746;-85
2022/12/05 16:31:58;;;;;;;71.17;35.53;;;;;;;2.59;100.00;100851.97;3674784;80;32117;-85
2022/12/05 16:36:59;;;;;;;60.30;27.30;;;;;;;2.58;100.00;100850.37;3625722;80;98736;-86
2022/12/05 16:42:00;;;;;;;76.53;35.63;;;;;;;2.57;100.00;100849.56;3597546;80;26595;-86
2022/12/05 16:47:04;;;;;;;76.33;35.40;;;;;;;2.58;100.00;100851.16;3613020;80;98699;-86
2022/12/05 16:52:13;;;;;;;85.22;39.55;;;;;;;2.59;100.00;100843.28;3602548;81;32971;-85
2022/12/05 16:57:16;;;;;;;83.87;38.38;;;;;;;2.59;100.00;100848.71;3642145;80;99126;-86
2022/12/05 17:02:18;;;;;;;94.85;43.28;;;;;;;2.61;100.00;100836.96;3658070;80;35370;-86
2022/12/05 17:07:18;;;;;;;86.25;40.75;;;;;;;2.64;100.00;100846.41;3649658;80;98490;-85
2022/12/05 17:12:23;;;;;;;99.80;44.20;;;;;;;2.67;100.00;100841.72;3651919;80;32447;-85
2022/12/05 17:17:24;;;;;;;156.03;79.17;;;;;;;2.68;100.00;100842.73;3611269;80;98633;-85
2022/12/05 17:22:25;;;;;;;112.90;54.40;;;;;;;2.69;100.00;100844.91;3661841;80;26460;-85
2022/12/05 17:27:26;;;;;;;108.83;48.47;;;;;;;2.70;100.00;100842.42;3644843;80;98985;-86
2022/12/05 17:32:27;;;;;;;105.33;44.87;;;;;;;2.74;100.00;100840.11;3648353;80;26351;-85
2022/12/05 17:37:28;;;;;;;107.53;46.30;;;;;;;2.76;100.00;100830.30;3649398;80;98685;-86
2022/12/05 17:42:28;;;;;;;100.80;45.00;;;;;;;2.78;100.00;100834.30;3657513;80;33107;-86
2022/12/05 17:47:29;;;;;;;104.10;44.60;;;;;;;2.79;100.00;100841.91;3648755;80;98900;-86
2022/12/05 17:52:30;;;;;;;99.50;42.50;;;;;;;2.80;100.00;100838.85;3652379;80;33258;-87
2022/12/05 17:57:31;;;;;;;106.17;45.50;;;;;;;2.81;100.00;100826.89;3650695;80;98797;-86
2022/12/05 18:02:32;;;;;;;116.55;44.55;;;;;;;2.84;100.00;100825.45;3665204;80;32527;-86
2022/12/05 18:07:33;;;;;;;110.20;43.50;;;;;;;2.83;100.00;100830.08;3653221;79;99009;-86
2022/12/05 18:12:34;;;;;;;101.23;40.93;;;;;;;2.86;100.00;100834.08;3659268;80;26035;-86
2022/12/05 18:17:34;;;;;;;110.13;43.80;;;;;;;2.85;100.00;100837.92;3664197;80;99218;-87
2022/12/05 18:22:36;;;;;;;91.08;38.75;;;;;;;2.86;100.00;100829.46;3661476;80;26497;-88
2022/12/05 18:27:38;;;;;;;94.63;40.07;;;;;;;2.88;100.00;100826.41;3629148;80;99201;-86
2022/12/05 18:32:39;;;;;;;108.57;44.47;;;;;;;2.90;100.00;100825.55;3630182;80;25927;-86
2022/12/05 18:37:39;;;;;;;99.93;46.17;;;;;;;2.93;100.00;100827.61;3611924;80;99112;-86
2022/12/05 18:42:40;;;;;;;114.13;47.53;;;;;;;2.97;100.00;100840.28;3617945;80;26323;-86
2022/12/05 18:47:41;;;;;;;116.93;49.30;;;;;;;2.98;100.00;100828.28;3616220;80;98968;-85
2022/12/05 18:52:42;;;;;;;102.40;45.00;;;;;;;2.97;100.00;100821.25;3609196;81;26221;-86
2022/12/05 18:57:43;;;;;;;109.27;48.53;;;;;;;2.99;100.00;100812.75;3585726;81;98615;-85
2022/12/05 19:02:50;;;;;;;105.33;44.73;;;;;;;3.00;100.00;100807.01;3583541;82;26436;-87
2022/12/05 19:07:53;;;;;;;107.67;45.17;;;;;;;3.02;100.00;100811.59;3543473;81;98888;-86
2022/12/05 19:12:54;;;;;;;109.33;46.80;;;;;;;3.00;100.00;100813.80;3555146;82;26050;-85
2022/12/05 19:17:58;;;;;;;112.57;47.17;;;;;;;3.05;100.00;100811.48;3580545;82;98751;-85
2022/12/05 19:22:58;;;;;;;115.87;47.40;;;;;;;3.08;100.00;100812.22;3590865;82;26367;-88
2022/12/05 19:27:59;;;;;;;102.40;47.10;;;;;;;3.09;100.00;100814.62;3591499;81;98776;-86
2022/12/05 19:32:59;;;;;;;113.13;46.93;;;;;;;3.10;100.00;100818.12;3595446;82;33216;-86
2022/12/05 19:38:00;;;;;;;110.33;50.30;;;;;;;3.10;100.00;100820.84;3594059;81;98818;-85
2022/12/05 19:43:03;;;;;;;102.10;48.10;;;;;;;3.10;100.00;100824.92;3594362;81;33180;-86
2022/12/05 19:48:04;;;;;;;110.20;47.63;;;;;;;3.09;100.00;100821.42;3591394;81;98575;-86
2022/12/05 19:53:05;;;;;;;102.47;46.17;;;;;;;3.12;100.00;100823.49;3606332;81;33647;-87
2022/12/05 19:58:06;;;;;;;113.47;49.03;;;;;;;3.16;100.00;100823.69;3602991;81;98913;-87
2022/12/05 20:03:07;;;;;;;109.80;45.07;;;;;;;3.19;100.00;100814.88;3605638;81;33919;-86
2022/12/05 20:08:07;;;;;;;110.33;50.57;;;;;;;3.22;100.00;100817.75;3600173;81;99229;-86
2022/12/05 20:13:08;;;;;;;112.57;52.80;;;;;;;3.22;100.00;100812.89;3608397;81;99151;-86
2022/12/05 20:18:09;;;;;;;154.50;67.40;;;;;;;3.21;100.00;100803.92;3547320;83;31690;-86
2022/12/05 20:23:10;;;;;;;118.03;53.70;;;;;;;3.23;100.00;100805.75;3535675;81;99164;-86
2022/12/05 20:28:10;;;;;;;127.13;55.67;;;;;;;3.24;100.00;100799.77;3601532;81;31600;-87
2022/12/05 20:33:11;;;;;;;105.23;48.63;;;;;;;3.24;100.00;100795.13;3600196;81;98831;-85
2022/12/05 20:38:13;;;;;;;115.90;50.00;;;;;;;3.24;100.00;100801.94;3591995;80;31712;-86
2022/12/05 20:43:14;;;;;;;111.83;48.60;;;;;;;3.22;100.00;100805.52;3590929;80;98798;-86
2022/12/05 20:48:15;;;;;;;115.00;52.63;;;;;;;3.22;100.00;100797.94;3651796;80;31663;-86
2022/12/05 20:53:15;;;;;;;120.60;51.13;;;;;;;3.23;100.00;100806.33;3632692;80;98749;-86
2022/12/05 20:58:16;;;;;;;114.47;49.47;;;;;;;3.22;100.00;100797.35;3605599;80;31700;-86
2022/12/05 21:03:17;;;;;;;127.22;51.64;;;;;;;3.25;100.00;100792.66;3577458;80;98870;-85
2022/12/05 21:08:18;;;;;;;119.93;52.80;;;;;;;3.24;100.00;100790.23;3575171;82;35588;-85
2022/12/05 21:13:19;;;;;;;127.37;54.53;;;;;;;3.24;100.00;100782.89;3574188;81;99417;-86
2022/12/05 21:18:20;;;;;;;120.10;52.73;;;;;;;3.27;100.00;100772.72;3592653;80;34929;-85
2022/12/05 21:23:20;;;;;;;132.67;55.87;;;;;;;3.28;100.00;100770.81;3587559;81;103573;-85
2022/12/05 21:28:21;;;;;;;123.10;53.13;;;;;;;3.30;100.00;100769.92;3599280;81;34839;-84
2022/12/05 21:33:22;;;;;;;130.03;53.17;;;;;;;3.29;100.00;100769.69;3568492;80;99224;-85
2022/12/05 21:38:23;;;;;;;126.30;52.43;;;;;;;3.30;100.00;100779.44;3580801;82;35379;-84
2022/12/05 21:43:24;;;;;;;118.35;51.15;;;;;;;3.30;100.00;100777.53;3573588;81;99229;-85
2022/12/05 21:48:25;;;;;;;128.02;54.63;;;;;;;3.33;100.00;100776.88;3582317;82;35548;-84
2022/12/05 21:53:26;;;;;;;128.45;53.10;;;;;;;3.34;100.00;100775.75;3575228;81;99157;-85
2022/12/05 21:58:27;;;;;;;124.73;51.40;;;;;;;3.35;100.00;100768.41;3632900;81;25843;-85
2022/12/05 22:03:28;;;;;;;127.02;53.63;;;;;;;3.38;100.00;100767.20;3629026;80;99311;-84
2022/12/05 22:08:31;;;;;;;131.57;54.70;;;;;;;3.41;100.00;100763.03;3639121;80;32462;-85
2022/12/05 22:13:32;;;;;;;125.70;53.87;;;;;;;3.40;100.00;100755.45;3634967;80;99221;-84
2022/12/05 22:18:34;;;;;;;132.45;54.63;;;;;;;3.41;100.00;100761.12;3637933;81;32038;-83
2022/12/05 22:23:35;;;;;;;125.67;52.30;;;;;;;3.43;100.00;100758.87;3628680;80;99647;-83
2022/12/05 22:28:36;;;;;;;124.90;51.90;;;;;;;3.44;100.00;100755.02;3634456;80;26340;-83
2022/12/05 22:33:38;;;;;;;111.77;49.70;;;;;;;3.45;100.00;100751.18;3622252;80;99251;-84
2022/12/05 22:38:42;;;;;;;124.47;55.33;;;;;;;3.48;100.00;100749.19;3635145;81;25843;-83
2022/12/05 22:43:45;;;;;;;127.50;55.30;;;;;;;3.49;100.00;100746.70;3623176;80;98920;-84
2022/12/05 22:48:47;;;;;;;121.13;50.40;;;;;;;3.51;100.00;100747.20;3630549;81;29082;-83
2022/12/05 22:53:52;;;;;;;125.90;55.73;;;;;;;3.54;100.00;100749.80;3646399;79;98832;-83
2022/12/05 22:58:57;;;;;;;120.70;52.60;;;;;;;3.55;100.00;100752.21;3676448;80;33207;-83
2022/12/05 23:04:08;;;;;;;119.08;51.85;;;;;;;3.56;100.00;100742.92;3666988;80;99107;-83
2022/12/05 23:09:10;;;;;;;117.50;53.70;;;;;;;3.57;100.00;100737.74;3685177;80;31675;-84
2022/12/05 23:14:11;;;;;;;114.00;51.65;;;;;;;3.62;100.00;100731.32;3678376;80;98824;-84
2022/12/05 23:19:11;;;;;;;105.05;47.35;;;;;;;3.62;100.00;100734.05;3677190;80;26256;-83
2022/12/05 23:24:12;;;;;;;105.20;46.75;;;;;;;3.51;100.00;100693.33;3677656;80;99292;-83